Hovedside
METAR-TAF:

METAR-TAF

Lufthavner :

Sundsvall Timrå lufthavn

Sundsvall-Härnösand, Sverige

breddegrad: 62-32N, lengdegrad: 017-27E, høyde over havet: 4 m

Gjeldene værobservasjon

Denne rapporten ble laget for 32 minutter siden, klokken 11:20 UTC
Vind 17 kt fra Vest-nordvest
Temperatur 16°C
Luftfuktighet 68%
Trykk 1002 hPa
Sikt 10 km eller mer

METAR: ESNN 191120Z AUTO 30017KT 9999 BKN030/// BKN076/// 16/10 Q1002

Tid: 13:52 (11:52 UTC)

Varsel

Denne rapporten ble laget for 22 minutter siden, klokken 11:30 UTC
Varsel gyldig fra 19. klokken 12 UTC til 19. klokken 21 UTC
Vind 17 kt fra Vest-nordvest
Sikt 10 km eller mer
Brutte skyer i en høyde av 3000 ft
Midlertidig
fra 19. klokken 12 UTC til 19. klokken 19 UTC
Vind 15 kt fra Vest-nordvest med vindkast opp mot 30 kt

TAF: ESNN 191130Z 1912/1921 30017KT 9999 BKN030 TEMPO 1912/1919 30015G30KT

Værobservasjoner og værvarsel for over 4000 flyplasser (METAR- og TAF-rapporter).

Tilgjengelige stasjoner er representert av de røde og gule prikkene på kartet.

Hold musepekeren over prikken for å se navnet på stasjonen.

Klikk så for å se værobservasjoner og -varsler.

For å forandre kartet kan du klikke på den grønne knappen med svart kryss for å zoome inn, på den grønne knappen med strek for å zoome ut, eller på de grønne pilene for å se tilstøtende kart.


METAR-TAF: